Time;durP1;ratioP1;P1;durP2;ratioP2;P2;SDS_P1;SDS_P2;PMS_P1;PMS_P2;Temp;Humidity;BMP_temperature;BMP_pressure;BME280_temperature;BME280_humidity;BME280_pressure;Samples;Min_cycle;Max_cycle;Signal;HPM_P1;HPM_P2
2024/02/29 00:02:10;;;;;;;;;;;;;;;1.76;64.95;95672.34;4958028;28;20017;-69
2024/02/29 00:04:36;;;;;;;;;;;;;;;1.81;65.58;95662.28;4957607;28;20001;-69
2024/02/29 00:07:02;;;;;;;;;;;;;;;1.84;63.86;95664.69;4952370;28;19922;-69
2024/02/29 00:09:28;;;;;;;;;;;;;;;1.80;64.93;95672.94;4955779;28;19963;-69
2024/02/29 00:11:53;;;;;;;;;;;;;;;1.80;65.49;95671.13;4958465;28;19930;-69
2024/02/29 00:14:19;;;;;;;;;;;;;;;1.77;64.86;95674.00;4954042;28;20033;-69
2024/02/29 00:16:44;;;;;;;;;;;;;;;1.74;65.09;95672.44;4955999;28;20379;-69
2024/02/29 00:19:13;;;;;;;;;;;;;;;1.74;64.60;95666.38;4957163;28;19926;-69
2024/02/29 00:21:38;;;;;;;;;;;;;;;1.74;64.47;95661.13;4956946;28;19933;-68
2024/02/29 00:24:03;;;;;;;;;;;;;;;1.73;65.49;95667.31;4950533;28;19918;-69
2024/02/29 00:26:29;;;;;;;;;;;;;;;1.70;65.00;95667.59;4956638;28;19926;-68
2024/02/29 00:28:54;;;;;;;;;;;;;;;1.72;65.20;95657.78;4955579;28;19976;-69
2024/02/29 00:31:20;;;;;;;;;;;;;;;1.69;64.94;95665.88;4956230;28;19922;-69
2024/02/29 00:33:45;;;;;;;;;;;;;;;1.62;63.82;95660.28;4956728;28;19926;-68
2024/02/29 00:36:10;;;;;;;;;;;;;;;1.57;63.94;95658.03;4956657;28;19981;-68
2024/02/29 00:38:36;;;;;;;;;;;;;;;1.52;65.62;95656.69;4956286;28;19930;-69
2024/02/29 00:41:01;;;;;;;;;;;;;;;1.52;66.42;95654.91;4956598;28;19980;-69
2024/02/29 00:43:27;;;;;;;;;;;;;;;1.45;65.73;95651.09;4957570;28;19934;-69
2024/02/29 00:45:52;;;;;;;;;;;;;;;1.43;65.45;95653.81;4955835;28;19930;-70
2024/02/29 00:48:17;;;;;;;;;;;;;;;1.38;65.89;95650.75;4956309;28;19961;-69
2024/02/29 00:50:43;;;;;;;;;;;;;;;1.37;65.91;95649.06;4957738;28;19998;-69
2024/02/29 00:53:08;;;;;;;;;;;;;;;1.28;66.66;95649.78;4957419;28;19930;-69
2024/02/29 00:55:33;;;;;;;;;;;;;;;1.27;64.88;95648.97;4956877;28;20640;-69
2024/02/29 00:57:58;;;;;;;;;;;;;;;1.24;66.31;95644.78;4954520;28;19956;-69
2024/02/29 01:00:24;;;;;;;;;;;;;;;1.22;66.17;95638.81;4956403;28;19926;-68
2024/02/29 01:02:49;;;;;;;;;;;;;;;1.18;64.72;95636.53;4957885;28;20009;-69
2024/02/29 01:05:15;;;;;;;;;;;;;;;1.20;66.06;95629.41;4956577;28;19980;-69
2024/02/29 01:07:40;;;;;;;;;;;;;;;1.20;65.79;95627.59;4956993;28;19953;-68
2024/02/29 01:10:11;;;;;;;;;;;;;;;1.21;66.31;95624.03;4955155;28;20296;-68
2024/02/29 01:12:39;;;;;;;;;;;;;;;1.19;66.41;95625.13;4972686;28;20009;-68
2024/02/29 01:15:05;;;;;;;;;;;;;;;1.18;65.85;95615.56;4956464;28;19933;-68
2024/02/29 01:17:31;;;;;;;;;;;;;;;1.13;65.53;95621.19;4950479;28;20463;-69
2024/02/29 01:19:56;;;;;;;;;;;;;;;1.11;66.01;95620.44;4956294;28;19958;-69
2024/02/29 01:22:21;;;;;;;;;;;;;;;1.14;66.00;95620.22;4956572;28;19957;-69
2024/02/29 01:24:46;;;;;;;;;;;;;;;1.01;66.31;95614.22;4955924;28;20509;-69
2024/02/29 01:27:12;;;;;;;;;;;;;;;1.10;66.55;95616.97;4955320;28;19922;-69
2024/02/29 01:29:38;;;;;;;;;;;;;;;1.06;67.15;95615.53;4953821;28;20481;-69
2024/02/29 01:32:04;;;;;;;;;;;;;;;1.10;66.14;95609.09;4957293;28;19966;-69
2024/02/29 01:34:29;;;;;;;;;;;;;;;1.03;65.27;95613.19;4954928;28;20022;-69
2024/02/29 01:36:54;;;;;;;;;;;;;;;1.07;65.18;95612.00;4955242;28;19933;-67
2024/02/29 01:39:20;;;;;;;;;;;;;;;1.02;66.88;95606.25;4955367;28;20028;-67
2024/02/29 01:41:45;;;;;;;;;;;;;;;1.02;65.51;95605.44;4956505;28;20008;-67
2024/02/29 01:44:11;;;;;;;;;;;;;;;0.95;66.67;95598.03;4955415;28;20562;-67
2024/02/29 01:46:36;;;;;;;;;;;;;;;0.92;66.10;95610.56;4954543;28;19926;-67
2024/02/29 01:49:02;;;;;;;;;;;;;;;0.90;66.35;95604.56;4955605;28;19926;-67
2024/02/29 01:51:27;;;;;;;;;;;;;;;0.94;66.25;95606.00;4955926;28;20453;-67
2024/02/29 01:53:52;;;;;;;;;;;;;;;0.95;65.92;95599.81;4956418;28;20161;-67
2024/02/29 01:56:18;;;;;;;;;;;;;;;0.92;65.16;95598.25;4955291;28;19969;-67
2024/02/29 01:58:43;;;;;;;;;;;;;;;0.92;66.47;95590.38;4970589;28;19918;-67
2024/02/29 02:01:08;;;;;;;;;;;;;;;0.92;67.79;95594.81;4964429;28;19952;-67
2024/02/29 02:03:34;;;;;;;;;;;;;;;0.87;63.51;95586.44;4970197;28;19929;-67
2024/02/29 02:05:59;;;;;;;;;;;;;;;0.94;65.90;95585.88;4957537;28;19926;-67
2024/02/29 02:08:27;;;;;;;;;;;;;;;0.87;66.74;95584.69;4956337;28;19918;-67
2024/02/29 02:10:53;;;;;;;;;;;;;;;0.87;64.97;95581.22;4955024;28;20421;-67
2024/02/29 02:13:18;;;;;;;;;;;;;;;0.87;66.73;95574.19;4955563;28;19957;-67
2024/02/29 02:15:43;;;;;;;;;;;;;;;0.75;57.86;95575.13;4956072;28;19934;-67
2024/02/29 02:18:08;;;;;;;;;;;;;;;0.79;66.85;95569.53;4955421;28;19949;-67
2024/02/29 02:20:34;;;;;;;;;;;;;;;0.78;66.96;95570.47;4955827;28;19993;-68
2024/02/29 02:22:59;;;;;;;;;;;;;;;0.82;66.59;95564.06;4955833;28;19918;-67
2024/02/29 02:25:24;;;;;;;;;;;;;;;0.81;66.74;95567.63;4955789;28;20713;-67
2024/02/29 02:27:49;;;;;;;;;;;;;;;0.75;62.97;95562.03;4955615;28;19928;-67
2024/02/29 02:30:15;;;;;;;;;;;;;;;0.75;66.24;95556.78;4955414;28;19933;-67
2024/02/29 02:32:40;;;;;;;;;;;;;;;0.74;65.86;95555.94;4956001;28;20406;-67
2024/02/29 02:35:06;;;;;;;;;;;;;;;0.72;67.20;95547.38;4954985;28;19926;-67
2024/02/29 02:37:32;;;;;;;;;;;;;;;0.68;67.61;95545.94;4955281;28;19926;-67
2024/02/29 02:39:58;;;;;;;;;;;;;;;0.58;67.87;95546.63;4956077;28;19945;-68
2024/02/29 02:42:23;;;;;;;;;;;;;;;0.58;67.25;95541.41;4951664;28;19941;-67
2024/02/29 02:44:49;;;;;;;;;;;;;;;0.45;63.47;95535.44;4946792;28;20533;-67
2024/02/29 02:47:14;;;;;;;;;;;;;;;0.48;67.00;95535.19;4940588;28;20563;-69
2024/02/29 02:49:41;;;;;;;;;;;;;;;0.53;67.93;95526.97;4948212;28;19996;-69
2024/02/29 02:52:07;;;;;;;;;;;;;;;0.47;68.54;95517.81;4942221;28;19923;-68
2024/02/29 02:54:32;;;;;;;;;;;;;;;0.54;67.18;95519.00;4948548;28;20554;-69
2024/02/29 02:56:57;;;;;;;;;;;;;;;0.58;68.04;95512.56;4941333;28;19927;-69
2024/02/29 02:59:23;;;;;;;;;;;;;;;0.63;67.80;95511.38;4947991;28;20036;-69
2024/02/29 03:01:49;;;;;;;;;;;;;;;0.57;63.69;95513.53;4945120;28;19922;-69
2024/02/29 03:04:15;;;;;;;;;;;;;;;0.65;65.08;95512.94;4949963;28;20128;-69
2024/02/29 03:06:40;;;;;;;;;;;;;;;0.68;67.45;95510.06;4944411;28;19922;-69
2024/02/29 03:09:07;;;;;;;;;;;;;;;0.67;66.79;95508.41;4958281;28;20427;-69
2024/02/29 03:11:33;;;;;;;;;;;;;;;0.67;65.40;95512.81;4949289;28;19937;-69
2024/02/29 03:13:58;;;;;;;;;;;;;;;0.65;66.66;95506.88;4947077;28;19926;-69
2024/02/29 03:16:23;;;;;;;;;;;;;;;0.69;66.87;95510.94;4942572;28;19989;-69
2024/02/29 03:18:48;;;;;;;;;;;;;;;0.65;67.49;95505.06;4943297;28;19933;-69
2024/02/29 03:21:14;;;;;;;;;;;;;;;0.64;67.50;95503.41;4942376;28;20021;-69
2024/02/29 03:23:40;;;;;;;;;;;;;;;0.67;66.25;95504.97;4949170;28;20392;-69
2024/02/29 03:26:05;;;;;;;;;;;;;;;0.65;66.18;95509.50;4942803;28;19922;-69
2024/02/29 03:28:31;;;;;;;;;;;;;;;0.68;67.33;95506.66;4947964;28;20197;-69
2024/02/29 03:30:56;;;;;;;;;;;;;;;0.69;67.42;95505.69;4942725;28;19948;-69
2024/02/29 03:33:22;;;;;;;;;;;;;;;0.67;67.07;95504.97;4939505;28;20583;-69
2024/02/29 03:35:47;;;;;;;;;;;;;;;0.63;67.66;95500.91;4956339;28;19926;-69
2024/02/29 03:38:12;;;;;;;;;;;;;;;0.63;66.33;95501.75;4964544;28;20544;-69
2024/02/29 03:40:37;;;;;;;;;;;;;;;0.56;64.13;95498.78;4957377;28;20661;-69
2024/02/29 03:43:03;;;;;;;;;;;;;;;0.63;66.48;95503.53;4958064;28;19930;-69
2024/02/29 03:45:28;;;;;;;;;;;;;;;0.59;67.71;95495.09;4957629;28;19926;-68
2024/02/29 03:47:53;;;;;;;;;;;;;;;0.56;64.74;95490.06;4955857;28;19926;-68
2024/02/29 03:50:18;;;;;;;;;;;;;;;0.42;61.33;95491.13;4957631;28;19929;-69
2024/02/29 03:52:44;;;;;;;;;;;;;;;0.50;67.42;95485.28;4958337;28;20399;-68
2024/02/29 03:55:09;;;;;;;;;;;;;;;0.56;67.64;95483.06;4957770;28;20399;-69
2024/02/29 03:57:34;;;;;;;;;;;;;;;0.54;67.30;95482.31;4961900;28;19934;-69
2024/02/29 03:59:59;;;;;;;;;;;;;;;0.52;65.53;95488.66;4957860;28;19926;-69
2024/02/29 04:02:25;;;;;;;;;;;;;;;0.53;67.34;95474.59;4957406;28;19969;-69
2024/02/29 04:04:51;;;;;;;;;;;;;;;0.56;67.38;95474.34;4957075;28;20474;-69
2024/02/29 04:07:16;;;;;;;;;;;;;;;0.55;65.88;95472.69;4949763;28;19918;-68
2024/02/29 04:09:41;;;;;;;;;;;;;;;0.56;67.00;95464.72;4957436;28;19983;-68
2024/02/29 04:12:07;;;;;;;;;;;;;;;0.51;66.72;95469.47;4952251;28;19926;-69
2024/02/29 04:14:38;;;;;;;;;;;;;;;0.50;64.99;95466.94;4957040;28;19926;-69
2024/02/29 04:17:03;;;;;;;;;;;;;;;0.43;67.91;95458.75;4957405;28;19925;-68
2024/02/29 04:19:28;;;;;;;;;;;;;;;0.43;67.43;95450.88;4957550;28;19926;-69
2024/02/29 04:21:54;;;;;;;;;;;;;;;0.39;68.00;95457.31;4957967;28;19926;-69
2024/02/29 04:24:19;;;;;;;;;;;;;;;0.27;68.68;95446.00;4956234;28;20427;-69
2024/02/29 04:26:44;;;;;;;;;;;;;;;0.24;66.83;95449.66;4958122;28;19925;-69
2024/02/29 04:29:09;;;;;;;;;;;;;;;0.27;68.13;95441.59;4957615;28;20005;-69
2024/02/29 04:31:35;;;;;;;;;;;;;;;0.22;67.44;95435.88;4958285;28;20234;-69
2024/02/29 04:34:00;;;;;;;;;;;;;;;0.23;68.34;95436.69;4957900;28;20362;-69
2024/02/29 04:36:26;;;;;;;;;;;;;;;0.19;68.63;95433.50;4956807;28;19937;-69
2024/02/29 04:38:51;;;;;;;;;;;;;;;0.20;68.40;95428.13;4958487;28;19929;-69
2024/02/29 04:41:17;;;;;;;;;;;;;;;0.12;68.46;95424.44;4956508;28;19926;-68
2024/02/29 04:43:42;;;;;;;;;;;;;;;0.19;69.01;95423.00;4958023;28;19926;-69
2024/02/29 04:46:08;;;;;;;;;;;;;;;0.18;68.16;95423.97;4957258;28;19989;-69
2024/02/29 04:48:33;;;;;;;;;;;;;;;0.16;68.38;95411.00;4958960;28;19965;-69
2024/02/29 04:50:58;;;;;;;;;;;;;;;0.17;67.77;95419.69;4957281;28;19961;-69
2024/02/29 04:53:23;;;;;;;;;;;;;;;0.14;68.84;95420.75;4957328;28;20628;-69
2024/02/29 04:55:49;;;;;;;;;;;;;;;0.19;68.12;95416.00;4956682;28;20017;-69
2024/02/29 04:58:14;;;;;;;;;;;;;;;0.20;68.11;95406.34;4957607;28;19926;-69
2024/02/29 05:00:39;;;;;;;;;;;;;;;0.19;68.42;95404.69;4956109;28;19938;-69
2024/02/29 05:03:05;;;;;;;;;;;;;;;0.19;68.75;95399.44;4957397;28;19980;-69
2024/02/29 05:05:30;;;;;;;;;;;;;;;0.17;68.71;95399.56;4956764;28;19932;-69
2024/02/29 05:07:56;;;;;;;;;;;;;;;0.11;68.62;95397.44;4949362;28;19922;-67
2024/02/29 05:10:21;;;;;;;;;;;;;;;0.10;68.20;95397.56;4955929;28;20019;-67
2024/02/29 05:12:50;;;;;;;;;;;;;;;0.10;68.22;95392.31;4956979;28;19922;-67
2024/02/29 05:15:17;;;;;;;;;;;;;;;-0.02;66.37;95401.94;4956783;28;20021;-67
2024/02/29 05:17:42;;;;;;;;;;;;;;;-0.08;65.78;95396.22;4957098;28;19922;-67
2024/02/29 05:20:07;;;;;;;;;;;;;;;-0.03;69.05;95388.00;4952441;28;19933;-67
2024/02/29 05:22:33;;;;;;;;;;;;;;;0.08;68.53;95392.44;4957173;28;19988;-67
2024/02/29 05:24:59;;;;;;;;;;;;;;;0.08;66.86;95401.09;4956066;28;20434;-67
2024/02/29 05:27:29;;;;;;;;;;;;;;;0.10;67.57;95395.75;4956657;28;20188;-67
2024/02/29 05:29:54;;;;;;;;;;;;;;;0.12;68.55;95398.25;4956802;28;20553;-67
2024/02/29 05:32:19;;;;;;;;;;;;;;;0.01;68.37;95396.47;4957166;28;20217;-67
2024/02/29 05:34:45;;;;;;;;;;;;;;;-0.12;68.66;95396.56;4956431;28;20016;-67
2024/02/29 05:37:10;;;;;;;;;;;;;;;0.04;68.31;95386.56;4955996;28;19933;-67
2024/02/29 05:39:35;;;;;;;;;;;;;;;0.02;66.99;95387.66;4955943;28;19956;-67
2024/02/29 05:42:01;;;;;;;;;;;;;;;-0.18;65.75;95385.63;4956249;28;19930;-67
2024/02/29 05:44:27;;;;;;;;;;;;;;;0.08;68.46;95387.19;4956117;28;20302;-67
2024/02/29 05:46:52;;;;;;;;;;;;;;;0.15;65.78;95390.16;4956616;28;20544;-67
2024/02/29 05:49:18;;;;;;;;;;;;;;;0.25;67.24;95390.28;4953534;28;20000;-67
2024/02/29 05:51:44;;;;;;;;;;;;;;;0.12;67.87;95385.16;4972871;28;19934;-67
2024/02/29 05:54:09;;;;;;;;;;;;;;;0.23;64.42;95395.63;4963703;28;19954;-67
2024/02/29 05:56:36;;;;;;;;;;;;;;;0.24;64.76;95388.63;4955254;28;20362;-67
2024/02/29 05:59:01;;;;;;;;;;;;;;;-0.02;56.45;95387.06;4956371;28;19922;-68
2024/02/29 06:01:26;;;;;;;;;;;;;;;0.19;67.60;95394.22;4955392;28;19929;-67
2024/02/29 06:03:52;;;;;;;;;;;;;;;0.27;67.06;95397.06;4957018;28;19977;-67
2024/02/29 06:06:17;;;;;;;;;;;;;;;0.39;67.31;95387.44;4954523;28;20094;-67
2024/02/29 06:08:42;;;;;;;;;;;;;;;0.40;67.46;95386.47;4957773;28;20023;-67
2024/02/29 06:11:11;;;;;;;;;;;;;;;0.44;67.83;95394.91;4955368;28;20773;-67
2024/02/29 06:13:36;;;;;;;;;;;;;;;0.45;68.26;95389.56;4955759;28;19961;-67
2024/02/29 06:16:03;;;;;;;;;;;;;;;0.55;67.81;95379.19;4955688;28;19973;-67
2024/02/29 06:18:28;;;;;;;;;;;;;;;0.58;67.79;95378.94;4951373;28;20408;-70
2024/02/29 06:20:53;;;;;;;;;;;;;;;0.55;67.52;95378.38;4955170;28;19926;-70
2024/02/29 06:23:18;;;;;;;;;;;;;;;0.63;67.47;95380.38;4955755;28;20769;-70
2024/02/29 06:25:44;;;;;;;;;;;;;;;0.59;67.57;95375.38;4954854;28;20012;-70
2024/02/29 06:28:09;;;;;;;;;;;;;;;0.70;67.53;95376.31;4960194;28;19925;-71
2024/02/29 06:30:34;;;;;;;;;;;;;;;0.63;67.82;95369.88;4955955;28;19929;-70
2024/02/29 06:33:00;;;;;;;;;;;;;;;0.72;67.69;95367.38;4955977;28;19960;-70
2024/02/29 06:35:25;;;;;;;;;;;;;;;0.77;67.17;95377.50;4955031;28;20619;-71
2024/02/29 06:37:50;;;;;;;;;;;;;;;0.81;67.02;95371.06;4955425;28;20343;-71
2024/02/29 06:40:15;;;;;;;;;;;;;;;0.83;66.96;95371.78;4955031;28;20021;-70
2024/02/29 06:42:41;;;;;;;;;;;;;;;0.86;67.30;95365.44;4955162;28;19930;-70
2024/02/29 06:45:06;;;;;;;;;;;;;;;0.84;67.46;95368.19;4955316;28;20672;-71
2024/02/29 06:47:33;;;;;;;;;;;;;;;0.98;66.36;95364.44;4958040;28;20640;-69
2024/02/29 06:49:58;;;;;;;;;;;;;;;1.02;65.43;95365.03;4956378;28;19932;-71
2024/02/29 06:52:24;;;;;;;;;;;;;;;1.06;66.52;95366.44;4959066;28;19926;-70
2024/02/29 06:54:49;;;;;;;;;;;;;;;1.07;66.70;95368.13;4958522;28;20612;-70
2024/02/29 06:57:14;;;;;;;;;;;;;;;1.19;66.93;95363.66;4958853;28;20649;-70
2024/02/29 06:59:40;;;;;;;;;;;;;;;1.26;66.47;95358.72;4958840;28;19926;-71
2024/02/29 07:02:05;;;;;;;;;;;;;;;1.34;65.92;95361.59;4958933;28;19953;-70
2024/02/29 07:04:30;;;;;;;;;;;;;;;1.39;66.56;95365.63;4958571;28;20090;-70
2024/02/29 07:06:56;;;;;;;;;;;;;;;1.39;65.47;95365.63;4954163;28;19926;-70
2024/02/29 07:09:21;;;;;;;;;;;;;;;1.52;63.49;95371.50;4957843;28;19965;-71
2024/02/29 07:11:46;;;;;;;;;;;;;;;1.67;65.57;95358.09;4960550;28;19925;-70
2024/02/29 07:14:11;;;;;;;;;;;;;;;1.68;65.04;95359.75;4958861;28;19926;-69
2024/02/29 07:16:38;;;;;;;;;;;;;;;1.85;65.13;95361.81;4958512;28;20064;-70
2024/02/29 07:19:04;;;;;;;;;;;;;;;1.96;60.97;95360.88;4954589;28;20555;-70
2024/02/29 07:21:29;;;;;;;;;;;;;;;2.10;65.08;95357.09;4957930;28;20010;-70
2024/02/29 07:23:54;;;;;;;;;;;;;;;2.16;65.97;95352.25;4957702;28;20674;-71
2024/02/29 07:26:19;;;;;;;;;;;;;;;2.30;63.88;95351.91;4957212;28;20013;-69
2024/02/29 07:28:45;;;;;;;;;;;;;;;2.48;64.05;95351.25;4958449;28;19964;-69
2024/02/29 07:31:11;;;;;;;;;;;;;;;2.53;65.04;95352.53;4958005;28;19985;-69
2024/02/29 07:33:37;;;;;;;;;;;;;;;2.48;64.63;95349.47;4958736;28;20701;-69
2024/02/29 07:36:02;;;;;;;;;;;;;;;2.64;63.75;95341.09;4958439;28;19977;-69
2024/02/29 07:38:28;;;;;;;;;;;;;;;2.73;63.83;95333.34;4957059;28;20314;-69
2024/02/29 07:40:53;;;;;;;;;;;;;;;2.89;63.34;95327.53;4957662;28;20077;-69
2024/02/29 07:43:18;;;;;;;;;;;;;;;2.94;63.36;95335.03;4958270;28;21497;-69
2024/02/29 07:45:43;;;;;;;;;;;;;;;3.07;63.08;95335.63;4959034;28;20390;-69
2024/02/29 07:48:09;;;;;;;;;;;;;;;3.19;62.05;95332.84;4956443;28;21381;-69
2024/02/29 07:50:35;;;;;;;;;;;;;;;3.23;63.01;95324.53;4956943;28;19926;-69
2024/02/29 07:53:00;;;;;;;;;;;;;;;3.24;61.91;95325.38;4957441;28;20458;-69
2024/02/29 07:55:26;;;;;;;;;;;;;;;3.43;62.94;95332.41;4958362;28;19918;-69
2024/02/29 07:57:51;;;;;;;;;;;;;;;3.48;61.70;95327.59;4957355;28;20030;-69
2024/02/29 08:00:17;;;;;;;;;;;;;;;3.59;62.60;95323.97;4956981;28;20533;-69
2024/02/29 08:02:43;;;;;;;;;;;;;;;3.70;62.58;95322.16;4957382;28;19933;-69
2024/02/29 08:05:08;;;;;;;;;;;;;;;3.72;61.27;95314.94;4950145;28;20704;-69
2024/02/29 08:07:34;;;;;;;;;;;;;;;3.78;61.64;95312.56;4947043;28;20928;-69
2024/02/29 08:09:59;;;;;;;;;;;;;;;3.99;61.56;95318.59;4957669;28;19993;-69
2024/02/29 08:12:24;;;;;;;;;;;;;;;4.07;58.99;95302.91;4954364;28;20534;-69
2024/02/29 08:14:49;;;;;;;;;;;;;;;4.15;53.28;95305.63;4956414;28;20024;-69
2024/02/29 08:17:16;;;;;;;;;;;;;;;4.21;58.05;95303.41;4956830;28;20017;-69
2024/02/29 08:19:41;;;;;;;;;;;;;;;4.06;51.39;95301.25;4957439;28;20534;-69
2024/02/29 08:22:06;;;;;;;;;;;;;;;4.30;57.75;95307.81;4956831;28;19997;-69
2024/02/29 08:24:31;;;;;;;;;;;;;;;4.39;58.77;95303.47;4956165;28;19926;-69
2024/02/29 08:26:57;;;;;;;;;;;;;;;3.94;54.53;95309.34;4956683;28;19929;-69
2024/02/29 08:29:22;;;;;;;;;;;;;;;3.94;53.88;95305.84;4955754;28;20045;-68
2024/02/29 08:31:47;;;;;;;;;;;;;;;4.23;55.22;95298.81;4956749;28;20724;-68
2024/02/29 08:34:12;;;;;;;;;;;;;;;4.11;49.48;95301.63;4955864;28;20012;-68
2024/02/29 08:36:38;;;;;;;;;;;;;;;4.16;48.22;95302.06;4954272;28;19929;-68
2024/02/29 08:39:03;;;;;;;;;;;;;;;4.37;52.84;95298.34;4955851;28;20059;-68
2024/02/29 08:41:28;;;;;;;;;;;;;;;4.53;52.94;95305.59;4956248;28;20001;-68
2024/02/29 08:43:54;;;;;;;;;;;;;;;4.77;54.87;95295.47;4955076;28;20013;-68
2024/02/29 08:46:19;;;;;;;;;;;;;;;5.00;54.01;95285.28;4949473;28;19933;-68
2024/02/29 08:48:45;;;;;;;;;;;;;;;5.04;57.61;95293.75;4947547;28;20723;-68
2024/02/29 08:51:10;;;;;;;;;;;;;;;5.18;55.57;95303.81;4951399;28;20372;-68
2024/02/29 08:53:36;;;;;;;;;;;;;;;4.51;53.31;95301.44;4951431;28;19926;-68
2024/02/29 08:56:01;;;;;;;;;;;;;;;5.16;55.59;95287.28;4955658;28;19969;-68
2024/02/29 08:58:27;;;;;;;;;;;;;;;5.56;54.34;95286.91;4955876;28;19929;-68
2024/02/29 09:00:52;;;;;;;;;;;;;;;5.03;45.58;95284.19;4956317;28;19922;-69
2024/02/29 09:03:17;;;;;;;;;;;;;;;4.77;50.35;95284.91;4954935;28;20013;-69
2024/02/29 09:05:44;;;;;;;;;;;;;;;5.38;56.00;95289.59;4953525;28;19926;-69
2024/02/29 09:08:09;;;;;;;;;;;;;;;5.55;51.89;95282.63;4955651;28;19929;-69
2024/02/29 09:10:35;;;;;;;;;;;;;;;5.57;50.57;95286.78;4955215;28;19929;-69
2024/02/29 09:13:00;;;;;;;;;;;;;;;5.79;51.86;95286.41;4956011;28;19930;-69
2024/02/29 09:15:26;;;;;;;;;;;;;;;6.02;45.83;95277.94;4950608;28;20750;-69
2024/02/29 09:17:51;;;;;;;;;;;;;;;6.08;50.10;95272.84;4955116;28;19982;-70
2024/02/29 09:20:16;;;;;;;;;;;;;;;5.84;48.90;95268.28;4956115;28;19926;-69
2024/02/29 09:22:41;;;;;;;;;;;;;;;5.59;46.44;95265.50;4956458;28;19949;-69
2024/02/29 09:25:07;;;;;;;;;;;;;;;5.96;51.78;95259.06;4955538;28;19958;-69
2024/02/29 09:27:33;;;;;;;;;;;;;;;6.06;52.29;95261.59;4955376;28;19922;-69
2024/02/29 09:29:58;;;;;;;;;;;;;;;6.13;48.59;95264.47;4953895;28;19926;-69
2024/02/29 09:32:23;;;;;;;;;;;;;;;6.38;49.88;95261.91;4952604;28;19970;-70
2024/02/29 09:34:48;;;;;;;;;;;;;;;6.42;42.50;95255.31;4953736;28;20409;-69
2024/02/29 09:37:13;;;;;;;;;;;;;;;6.35;48.11;95246.34;4947787;28;20519;-70
2024/02/29 09:39:39;;;;;;;;;;;;;;;6.42;42.32;95251.84;4955617;28;19928;-69
2024/02/29 09:42:05;;;;;;;;;;;;;;;6.89;42.23;95245.19;4956076;28;20048;-69
2024/02/29 09:44:31;;;;;;;;;;;;;;;6.93;47.21;95243.84;4954756;28;19921;-69
2024/02/29 09:46:56;;;;;;;;;;;;;;;7.01;45.58;95238.56;4953984;28;20465;-70
2024/02/29 09:49:22;;;;;;;;;;;;;;;7.02;41.45;95234.94;4955015;28;19925;-69
2024/02/29 09:51:47;;;;;;;;;;;;;;;6.96;46.58;95238.25;4957520;28;19930;-69
2024/02/29 09:54:18;;;;;;;;;;;;;;;6.03;41.95;95242.59;4957895;28;20534;-68
2024/02/29 09:56:44;;;;;;;;;;;;;;;6.50;47.87;95231.56;4954979;28;19958;-69
2024/02/29 09:59:13;;;;;;;;;;;;;;;6.77;43.68;95232.25;4955561;28;20005;-68
2024/02/29 10:01:39;;;;;;;;;;;;;;;7.04;40.49;95239.25;4956236;28;19932;-68
2024/02/29 10:04:04;;;;;;;;;;;;;;;7.39;40.94;95226.66;4953510;28;19926;-69
2024/02/29 10:06:29;;;;;;;;;;;;;;;7.12;40.30;95231.31;4954366;28;19930;-69
2024/02/29 10:08:55;;;;;;;;;;;;;;;7.25;41.42;95231.63;4955337;28;20534;-69
2024/02/29 10:11:21;;;;;;;;;;;;;;;7.50;41.67;95218.38;4954820;28;19926;-68
2024/02/29 10:13:47;;;;;;;;;;;;;;;7.51;41.74;95216.53;4955530;28;19965;-69
2024/02/29 10:16:12;;;;;;;;;;;;;;;6.38;39.59;95207.22;4953972;28;19922;-70
2024/02/29 10:18:38;;;;;;;;;;;;;;;6.92;40.82;95202.50;4952870;28;19980;-70
2024/02/29 10:21:14;;;;;;;;;;;;;;;7.36;45.67;95201.34;4954092;28;19922;-68
2024/02/29 10:23:40;;;;;;;;;;;;;;;7.61;45.46;95195.13;4955488;28;19996;-68
2024/02/29 10:26:05;;;;;;;;;;;;;;;6.75;40.48;95193.75;4954190;28;19926;-68
2024/02/29 10:28:30;;;;;;;;;;;;;;;6.48;44.75;95193.88;4951503;28;20427;-69
2024/02/29 10:30:58;;;;;;;;;;;;;;;5.68;42.66;95201.16;4955126;28;20431;-69
2024/02/29 10:33:29;;;;;;;;;;;;;;;5.98;46.79;95196.34;4954998;28;21847;-69
2024/02/29 10:35:56;;;;;;;;;;;;;;;6.88;42.27;95187.97;4954659;28;20064;-69
2024/02/29 10:38:21;;;;;;;;;;;;;;;7.18;46.52;95188.28;4954229;28;19933;-69
2024/02/29 10:40:48;;;;;;;;;;;;;;;7.39;43.85;95184.28;4954112;28;19926;-69
2024/02/29 10:43:13;;;;;;;;;;;;;;;5.71;41.78;95182.34;4957571;28;19933;-70
2024/02/29 10:45:49;;;;;;;;;;;;;;;6.67;46.79;95170.75;4955699;28;19957;-68
2024/02/29 10:48:14;;;;;;;;;;;;;;;7.41;46.13;95179.63;4956782;28;20559;-69
2024/02/29 10:50:45;;;;;;;;;;;;;;;7.66;44.26;95175.09;4954643;28;19974;-68
2024/02/29 10:53:33;;;;;;;;;;;;;;;7.71;44.10;95169.28;4955019;28;19922;-69
2024/02/29 10:56:18;;;;;;;;;;;;;;;8.27;41.39;95171.03;4945817;28;20465;-69
2024/02/29 10:58:43;;;;;;;;;;;;;;;7.82;37.87;95181.34;4971369;28;19964;-67
2024/02/29 11:01:10;;;;;;;;;;;;;;;8.23;40.20;95166.28;4969436;28;20704;-67
2024/02/29 11:03:35;;;;;;;;;;;;;;;8.50;39.28;95166.78;4947185;28;20539;-67
2024/02/29 11:06:01;;;;;;;;;;;;;;;8.60;42.56;95161.25;4953408;28;19928;-67
2024/02/29 11:08:26;;;;;;;;;;;;;;;8.58;37.27;95158.78;4961984;28;19922;-68
2024/02/29 11:10:55;;;;;;;;;;;;;;;8.48;35.80;95160.81;4954700;28;20384;-67
2024/02/29 11:13:21;;;;;;;;;;;;;;;8.75;39.43;95161.31;4954902;28;19926;-68
2024/02/29 11:15:48;;;;;;;;;;;;;;;8.95;40.46;95164.34;4949491;28;19922;-68
2024/02/29 11:18:21;;;;;;;;;;;;;;;9.11;38.88;95138.66;4953486;28;20017;-68
2024/02/29 11:20:46;;;;;;;;;;;;;;;8.67;38.06;95139.13;4956252;28;19953;-68
2024/02/29 11:23:11;;;;;;;;;;;;;;;7.94;37.70;95139.41;4950931;28;19926;-68
2024/02/29 11:25:40;;;;;;;;;;;;;;;8.66;38.94;95126.03;4954181;28;19926;-68
2024/02/29 11:28:05;;;;;;;;;;;;;;;8.76;37.33;95125.78;4965572;28;19949;-68
2024/02/29 11:30:31;;;;;;;;;;;;;;;9.20;36.23;95114.47;4952821;28;19934;-68
2024/02/29 11:33:06;;;;;;;;;;;;;;;8.79;35.53;95120.13;4965279;28;20308;-67
2024/02/29 11:35:31;;;;;;;;;;;;;;;7.28;39.96;95120.06;4957817;28;20370;-68
2024/02/29 11:37:56;;;;;;;;;;;;;;;7.81;37.05;95115.28;4954359;28;19933;-67
2024/02/29 11:40:22;;;;;;;;;;;;;;;7.48;39.32;95109.09;4957382;28;19922;-67
2024/02/29 11:42:48;;;;;;;;;;;;;;;8.70;36.58;95098.13;4955969;28;20426;-67
2024/02/29 11:45:21;;;;;;;;;;;;;;;9.22;36.74;95087.75;4957909;28;20012;-67
2024/02/29 11:47:46;;;;;;;;;;;;;;;9.78;35.75;95094.38;4957568;28;19922;-67
2024/02/29 11:50:12;;;;;;;;;;;;;;;10.00;33.09;95083.81;4957754;28;20430;-67
2024/02/29 11:52:38;;;;;;;;;;;;;;;9.42;34.98;95081.88;4956726;28;20454;-67
2024/02/29 11:55:03;;;;;;;;;;;;;;;9.96;33.40;95083.34;4957158;28;20040;-67
2024/02/29 11:57:28;;;;;;;;;;;;;;;9.91;33.91;95080.44;4953897;28;19980;-67
2024/02/29 11:59:54;;;;;;;;;;;;;;;10.52;36.29;95067.78;4955079;28;20323;-67
2024/02/29 12:02:19;;;;;;;;;;;;;;;10.71;34.15;95068.16;4956406;28;20458;-67
2024/02/29 12:04:44;;;;;;;;;;;;;;;10.51;32.28;95067.97;4956698;28;19926;-67
2024/02/29 12:07:09;;;;;;;;;;;;;;;9.57;33.54;95058.78;4955618;28;19926;-67
2024/02/29 12:09:35;;;;;;;;;;;;;;;9.27;36.40;95049.97;4956442;28;20529;-66
2024/02/29 12:12:00;;;;;;;;;;;;;;;9.40;34.87;95054.66;4957213;28;19922;-67
2024/02/29 12:14:25;;;;;;;;;;;;;;;10.40;35.82;95045.38;4955589;28;19941;-67
2024/02/29 12:16:51;;;;;;;;;;;;;;;9.95;36.68;95046.31;4957322;28;19962;-67
2024/02/29 12:19:16;;;;;;;;;;;;;;;10.72;33.48;95037.84;4971305;28;19972;-67
2024/02/29 12:21:42;;;;;;;;;;;;;;;11.33;32.79;95040.91;4957015;28;20013;-68
2024/02/29 12:24:07;;;;;;;;;;;;;;;11.41;33.30;95022.09;4956689;28;20280;-67
2024/02/29 12:26:32;;;;;;;;;;;;;;;11.43;29.75;95022.72;4956884;28;19976;-67
2024/02/29 12:28:57;;;;;;;;;;;;;;;10.62;31.00;95023.00;4957131;28;20730;-67
2024/02/29 12:31:23;;;;;;;;;;;;;;;9.40;32.94;95020.13;4956135;28;20340;-67
2024/02/29 12:33:48;;;;;;;;;;;;;;;9.69;32.96;95021.09;4954806;28;19933;-67
2024/02/29 12:36:16;;;;;;;;;;;;;;;10.09;30.88;95008.25;4970176;28;19941;-67
2024/02/29 12:38:42;;;;;;;;;;;;;;;10.70;32.07;95014.06;4957332;28;19922;-67
2024/02/29 12:41:07;;;;;;;;;;;;;;;10.24;34.39;94999.38;4955353;28;19948;-67
2024/02/29 12:43:32;;;;;;;;;;;;;;;9.94;34.67;94994.16;4957028;28;20426;-67
2024/02/29 12:45:58;;;;;;;;;;;;;;;10.29;35.09;94991.63;4956185;28;19928;-68
2024/02/29 12:48:24;;;;;;;;;;;;;;;11.71;30.30;94981.81;4954883;28;19928;-68